Time;durP1;ratioP1;P1;durP2;ratioP2;P2;SDS_P1;SDS_P2;PMS_P1;PMS_P2;Temp;Humidity;BMP_temperature;BMP_pressure;BME280_temperature;BME280_humidity;BME280_pressure;Samples;Min_cycle;Max_cycle;Signal;HPM_P1;HPM_P2
2022/07/23 00:00:31;;;;;;;8.45;7.15;;;;;;;22.58;100.00;96257.34;5071658;28;20090;-77
2022/07/23 00:02:56;;;;;;;9.57;7.07;;;;;;;22.67;100.00;96260.47;5077906;28;20485;-78
2022/07/23 00:05:22;;;;;;;10.35;7.20;;;;;;;22.75;100.00;96255.56;5074967;28;20462;-80
2022/07/23 00:07:48;;;;;;;10.65;6.28;;;;;;;22.69;100.00;96248.47;5062842;28;20062;-77
2022/07/23 00:10:13;;;;;;;10.43;6.10;;;;;;;22.77;99.51;96253.47;5051678;28;20040;-78
2022/07/23 00:12:41;;;;;;;9.15;6.05;;;;;;;22.88;96.48;96240.28;5061737;28;20040;-77
2022/07/23 00:15:07;;;;;;;8.15;6.35;;;;;;;23.04;91.88;96240.38;5074609;28;20044;-77
2022/07/23 00:17:33;;;;;;;7.13;5.78;;;;;;;23.12;90.82;96244.56;5066979;28;20121;-77
2022/07/23 00:19:59;;;;;;;8.27;5.30;;;;;;;23.24;85.30;96244.53;5050625;28;20020;-79
2022/07/23 00:22:25;;;;;;;7.57;5.20;;;;;;;23.33;81.62;96244.94;5040469;28;20145;-77
2022/07/23 00:24:51;;;;;;;7.15;4.75;;;;;;;23.42;78.79;96235.47;5052811;28;20538;-77
2022/07/23 00:27:16;;;;;;;7.85;4.93;;;;;;;23.48;76.94;96240.69;5056056;28;20025;-78
2022/07/23 00:29:42;;;;;;;7.68;4.90;;;;;;;23.49;77.14;96230.75;5047195;28;20374;-78
2022/07/23 00:32:08;;;;;;;7.03;4.90;;;;;;;23.47;76.01;96211.38;5065733;28;20032;-78
2022/07/23 00:34:33;;;;;;;7.47;5.05;;;;;;;23.44;75.89;96201.97;5058858;28;20485;-78
2022/07/23 00:36:59;;;;;;;7.28;4.50;;;;;;;23.46;75.70;96196.34;5051691;28;20032;-77
2022/07/23 00:39:25;;;;;;;7.10;4.55;;;;;;;23.44;76.63;96196.59;5076411;28;20035;-78
2022/07/23 00:41:51;;;;;;;7.75;4.40;;;;;;;23.35;76.62;96195.34;5076083;28;20037;-78
2022/07/23 00:44:25;;;;;;;5.82;4.35;;;;;;;23.35;77.58;96183.81;5074984;28;20504;-80
2022/07/23 00:46:56;;;;;;;7.80;4.97;;;;;;;23.27;77.60;96177.78;5033368;28;20449;-78
2022/07/23 00:49:29;;;;;;;8.88;4.82;;;;;;;23.37;77.18;96169.06;5034541;28;20032;-78
2022/07/23 00:51:56;;;;;;;6.88;4.20;;;;;;;23.32;76.59;96173.56;5050954;28;20039;-79
2022/07/23 00:54:25;;;;;;;8.55;4.43;;;;;;;23.30;75.27;96182.63;5052598;28;20037;-77
2022/07/23 00:56:51;;;;;;;7.72;4.97;;;;;;;23.30;74.56;96174.59;5057727;28;20025;-78
2022/07/23 00:59:16;;;;;;;6.80;4.65;;;;;;;23.20;75.47;96190.50;5048467;28;20048;-78
2022/07/23 01:01:44;;;;;;;7.55;4.32;;;;;;;23.16;77.01;96200.09;5056580;28;20034;-78
2022/07/23 01:04:10;;;;;;;7.75;4.35;;;;;;;23.10;77.27;96200.22;5075134;28;20031;-78
2022/07/23 01:06:37;;;;;;;7.45;5.50;;;;;;;23.12;76.91;96203.50;5054738;28;20031;-77
2022/07/23 01:09:05;;;;;;;7.60;4.05;;;;;;;23.23;71.72;96187.34;5036751;28;20029;-78
2022/07/23 01:11:33;;;;;;;5.63;3.60;;;;;;;23.32;69.42;96190.47;5053950;28;20083;-78
2022/07/23 01:14:07;;;;;;;6.72;3.40;;;;;;;23.47;66.09;96203.34;5068719;28;20466;-77
2022/07/23 01:16:32;;;;;;;6.80;4.20;;;;;;;23.58;64.82;96199.78;5056413;28;20405;-77
2022/07/23 01:18:58;;;;;;;5.05;3.53;;;;;;;23.51;65.55;96202.63;5069336;28;20028;-80
2022/07/23 01:21:24;;;;;;;7.57;3.75;;;;;;;23.49;66.51;96199.34;5039496;28;20035;-77
2022/07/23 01:23:50;;;;;;;6.55;4.30;;;;;;;23.43;67.63;96194.13;5040527;28;20024;-79
2022/07/23 01:26:16;;;;;;;7.65;4.07;;;;;;;23.41;68.04;96190.91;5043344;28;20040;-77
2022/07/23 01:28:43;;;;;;;9.95;4.45;;;;;;;23.34;69.42;96190.22;5077890;28;20036;-77
2022/07/23 01:31:09;;;;;;;8.00;4.15;;;;;;;23.32;70.63;96203.06;5047778;28;20020;-78
2022/07/23 01:33:35;;;;;;;6.28;4.18;;;;;;;23.27;71.65;96209.13;5047411;28;20724;-80
2022/07/23 01:36:01;;;;;;;8.40;4.72;;;;;;;23.18;83.43;96214.09;5058946;28;20025;-79
2022/07/23 01:38:27;;;;;;;6.97;4.40;;;;;;;22.89;96.41;96217.75;5052987;28;20556;-78
2022/07/23 01:40:52;;;;;;;6.03;4.20;;;;;;;22.55;98.07;96182.75;5061811;28;20032;-78
2022/07/23 01:43:18;;;;;;;7.47;4.68;;;;;;;22.30;100.00;96191.88;5082280;28;20024;-77
2022/07/23 01:45:44;;;;;;;7.55;4.07;;;;;;;22.19;100.00;96192.69;5059616;28;20566;-77
2022/07/23 01:48:11;;;;;;;6.53;4.50;;;;;;;22.14;100.00;96208.63;5058020;28;20029;-80
2022/07/23 01:50:42;;;;;;;7.28;4.53;;;;;;;22.11;100.00;96211.78;5045472;28;20064;-77
2022/07/23 01:53:20;;;;;;;11.85;5.00;;;;;;;22.00;100.00;96205.38;5064507;28;20120;-77
2022/07/23 01:55:47;;;;;;;6.28;4.15;;;;;;;21.99;100.00;96190.31;5042271;28;20123;-78
2022/07/23 01:58:12;;;;;;;6.72;4.53;;;;;;;21.92;100.00;96180.78;5060668;28;20047;-78
2022/07/23 02:00:38;;;;;;;7.68;4.72;;;;;;;21.90;100.00;96173.00;5043493;28;20489;-78
2022/07/23 02:03:04;;;;;;;6.30;4.55;;;;;;;21.92;100.00;96168.22;5053400;28;20028;-78
2022/07/23 02:05:31;;;;;;;6.50;4.05;;;;;;;21.97;100.00;96171.03;5042922;28;20072;-78
2022/07/23 02:07:59;;;;;;;6.50;4.50;;;;;;;21.91;100.00;96179.97;5071042;28;20035;-77
2022/07/23 02:10:26;;;;;;;6.75;4.35;;;;;;;21.97;100.00;96186.28;5057354;28;20054;-77
2022/07/23 02:12:51;;;;;;;7.50;4.53;;;;;;;21.95;100.00;96173.09;5038244;28;20103;-77
2022/07/23 02:15:17;;;;;;;6.97;4.03;;;;;;;22.00;96.79;96169.72;5052713;28;20368;-79
2022/07/23 02:17:43;;;;;;;5.93;4.13;;;;;;;21.97;98.80;96188.94;5036508;28;20032;-77
2022/07/23 02:20:10;;;;;;;6.43;4.28;;;;;;;21.95;95.42;96177.66;5060657;28;20035;-77
2022/07/23 02:22:37;;;;;;;5.55;3.75;;;;;;;21.96;94.97;96165.88;5043192;28;20066;-77
2022/07/23 02:25:04;;;;;;;5.78;3.97;;;;;;;22.03;92.03;96151.34;5070914;28;20207;-77
2022/07/23 02:27:30;;;;;;;10.52;4.47;;;;;;;22.06;91.25;96144.69;5073542;28;20046;-78
2022/07/23 02:29:57;;;;;;;5.63;3.45;;;;;;;22.10;90.41;96148.56;5057979;28;20031;-77
2022/07/23 02:32:23;;;;;;;6.03;4.07;;;;;;;22.10;89.37;96157.41;5059303;28;20029;-77
2022/07/23 02:34:49;;;;;;;6.50;3.97;;;;;;;22.08;91.63;96175.56;5060445;28;20073;-77
2022/07/23 02:37:17;;;;;;;6.18;4.18;;;;;;;22.03;91.33;96178.13;5050317;28;20025;-78
2022/07/23 02:39:43;;;;;;;6.63;3.85;;;;;;;21.99;91.99;96187.66;5039114;28;20093;-77
2022/07/23 02:42:09;;;;;;;6.45;4.15;;;;;;;21.83;93.27;96186.50;5045790;28;20036;-77
2022/07/23 02:44:35;;;;;;;8.30;3.83;;;;;;;21.82;93.44;96192.88;5049589;28;20020;-77
2022/07/23 02:47:01;;;;;;;7.22;3.90;;;;;;;21.74;94.68;96195.09;5031507;28;20032;-78
2022/07/23 02:49:27;;;;;;;5.63;4.00;;;;;;;21.74;95.52;96192.41;5063659;28;20040;-78
2022/07/23 02:51:53;;;;;;;6.07;3.60;;;;;;;21.63;93.18;96188.69;5032462;28;20898;-81
2022/07/23 02:54:19;;;;;;;7.03;3.88;;;;;;;21.65;93.03;96186.56;5043219;28;20029;-78
2022/07/23 02:56:45;;;;;;;7.70;4.18;;;;;;;21.66;93.16;96190.88;5048547;28;20051;-77
2022/07/23 02:59:11;;;;;;;7.10;4.30;;;;;;;21.69;92.31;96186.91;5046202;28;20111;-78
2022/07/23 03:01:37;;;;;;;6.97;4.57;;;;;;;21.55;92.24;96200.50;5059058;28;20066;-77
2022/07/23 03:04:03;;;;;;;8.32;4.35;;;;;;;21.49;93.00;96208.63;5059096;28;20043;-81
2022/07/23 03:06:29;;;;;;;5.93;3.92;;;;;;;21.40;94.28;96217.00;5029859;28;20470;-78
2022/07/23 03:08:54;;;;;;;5.32;3.78;;;;;;;21.35;94.67;96211.50;5048735;28;20052;-79
2022/07/23 03:11:21;;;;;;;5.28;3.78;;;;;;;21.30;95.20;96215.88;5040327;28;20657;-79
2022/07/23 03:13:47;;;;;;;6.65;4.00;;;;;;;21.22;95.80;96227.69;5048262;28;20174;-77
2022/07/23 03:16:13;;;;;;;9.10;4.38;;;;;;;21.24;96.30;96233.66;5047955;28;20529;-77
2022/07/23 03:18:39;;;;;;;9.20;4.30;;;;;;;21.21;97.24;96231.44;5041495;28;20032;-78
2022/07/23 03:21:04;;;;;;;5.82;3.97;;;;;;;21.15;98.64;96232.31;5074726;28;20063;-78
2022/07/23 03:23:30;;;;;;;8.20;4.15;;;;;;;21.07;99.87;96221.94;5060311;28;20040;-80
2022/07/23 03:25:56;;;;;;;8.13;4.50;;;;;;;21.04;100.00;96222.41;5036133;28;20044;-77
2022/07/23 03:28:22;;;;;;;7.72;4.35;;;;;;;20.89;100.00;96225.44;5057379;28;20477;-78
2022/07/23 03:30:48;;;;;;;6.10;4.65;;;;;;;20.80;100.00;96235.63;5052890;28;20077;-77
2022/07/23 03:33:18;;;;;;;6.40;4.18;;;;;;;20.84;100.00;96234.16;5053430;28;20028;-77
2022/07/23 03:35:45;;;;;;;6.57;4.85;;;;;;;20.72;100.00;96243.94;5027727;28;20120;-78
2022/07/23 03:38:18;;;;;;;5.80;3.80;;;;;;;20.78;100.00;96243.06;5037965;28;20070;-78
2022/07/23 03:40:43;;;;;;;6.90;4.90;;;;;;;20.82;100.00;96232.72;5032481;28;20711;-79
2022/07/23 03:43:09;;;;;;;7.22;4.70;;;;;;;20.82;100.00;96238.88;5048686;28;20040;-77
2022/07/23 03:45:35;;;;;;;7.38;4.85;;;;;;;20.72;100.00;96246.63;5040159;28;20419;-77
2022/07/23 03:48:01;;;;;;;7.28;4.88;;;;;;;20.69;100.00;96250.56;5039890;28;20028;-77
2022/07/23 03:50:28;;;;;;;8.82;4.70;;;;;;;20.74;100.00;96249.06;5033425;28;20036;-76
2022/07/23 03:52:54;;;;;;;7.55;4.53;;;;;;;20.69;100.00;96249.72;5033719;28;20444;-77
2022/07/23 03:55:20;;;;;;;6.32;4.30;;;;;;;20.76;100.00;96247.81;5056781;28;20040;-77
2022/07/23 03:57:45;;;;;;;6.97;5.10;;;;;;;20.55;100.00;96254.41;5039236;28;20512;-80
2022/07/23 04:00:12;;;;;;;6.97;4.68;;;;;;;20.54;100.00;96259.97;5047722;28;20037;-81
2022/07/23 04:02:42;;;;;;;7.35;5.03;;;;;;;20.53;100.00;96258.34;5053144;28;20036;-77
2022/07/23 04:05:10;;;;;;;6.60;4.70;;;;;;;20.51;100.00;96249.72;5049104;28;20027;-77
2022/07/23 04:07:40;;;;;;;6.78;4.55;;;;;;;20.56;100.00;96249.91;5040643;28;20037;-78
2022/07/23 04:10:06;;;;;;;6.70;4.65;;;;;;;20.52;100.00;96254.84;5031236;28;20037;-77
2022/07/23 04:12:32;;;;;;;6.88;4.93;;;;;;;20.41;100.00;96243.00;5049385;28;20489;-78
2022/07/23 04:14:57;;;;;;;7.03;4.65;;;;;;;20.39;100.00;96247.78;5051870;28;20039;-80
2022/07/23 04:17:23;;;;;;;7.75;5.40;;;;;;;20.35;100.00;96243.06;5034498;28;20060;-79
2022/07/23 04:19:49;;;;;;;6.90;4.93;;;;;;;20.35;100.00;96237.72;5039759;28;20566;-79
2022/07/23 04:22:18;;;;;;;11.48;5.53;;;;;;;20.35;100.00;96248.41;5058908;28;20661;-78
2022/07/23 04:24:44;;;;;;;7.72;4.60;;;;;;;20.38;100.00;96254.13;5054799;28;20085;-77
2022/07/23 04:27:10;;;;;;;9.55;4.95;;;;;;;20.39;100.00;96247.78;5062713;28;20032;-79
2022/07/23 04:29:36;;;;;;;6.93;4.70;;;;;;;20.36;100.00;96245.53;5035841;28;20033;-77
2022/07/23 04:32:02;;;;;;;8.60;5.38;;;;;;;20.45;100.00;96248.72;5034777;28;20028;-77
2022/07/23 04:34:28;;;;;;;6.90;4.78;;;;;;;20.45;100.00;96248.72;5049706;28;20059;-77
2022/07/23 04:36:54;;;;;;;12.35;5.22;;;;;;;20.47;100.00;96249.31;5058210;28;20025;-77
2022/07/23 04:39:20;;;;;;;7.90;5.47;;;;;;;20.52;100.00;96254.03;5039316;28;20482;-78
2022/07/23 04:41:46;;;;;;;9.13;5.65;;;;;;;20.56;100.00;96253.38;5048747;28;20388;-79
2022/07/23 04:44:16;;;;;;;6.78;4.93;;;;;;;20.60;100.00;96259.09;5056252;28;20032;-77
2022/07/23 04:46:41;;;;;;;7.40;5.57;;;;;;;20.65;100.00;96256.56;5056924;28;20035;-76
2022/07/23 04:49:08;;;;;;;7.32;5.80;;;;;;;20.64;100.00;96263.75;5068228;28;20032;-77
2022/07/23 04:51:34;;;;;;;9.60;5.97;;;;;;;20.69;100.00;96266.59;5061762;28;20086;-78
2022/07/23 04:53:59;;;;;;;7.88;5.18;;;;;;;20.75;100.00;96262.22;5047656;28;20059;-78
2022/07/23 04:56:25;;;;;;;7.95;4.93;;;;;;;20.77;100.00;96257.47;5050782;28;20483;-77
2022/07/23 04:58:51;;;;;;;6.65;5.20;;;;;;;20.79;100.00;96252.72;5043221;28;20048;-77
2022/07/23 05:01:16;;;;;;;8.15;4.43;;;;;;;20.99;100.00;96259.69;5059457;28;20032;-78
2022/07/23 05:03:42;;;;;;;8.00;5.40;;;;;;;21.01;100.00;96257.59;5039944;28;20121;-77
2022/07/23 05:06:09;;;;;;;7.45;5.03;;;;;;;21.06;100.00;96245.22;5059599;28;20032;-77
2022/07/23 05:08:36;;;;;;;7.47;5.15;;;;;;;21.10;100.00;96253.59;5056345;28;20056;-78
2022/07/23 05:11:01;;;;;;;8.70;5.30;;;;;;;21.22;100.00;96245.59;5052004;28;20401;-77
2022/07/23 05:13:28;;;;;;;7.22;5.38;;;;;;;21.34;100.00;96247.31;5056327;28;20057;-77
2022/07/23 05:15:54;;;;;;;8.55;4.82;;;;;;;21.49;100.00;96243.41;5035180;28;20127;-76
2022/07/23 05:18:20;;;;;;;8.32;5.45;;;;;;;21.54;100.00;96247.06;5051023;28;20087;-77
2022/07/23 05:20:46;;;;;;;6.63;4.78;;;;;;;21.67;100.00;96251.41;5058315;28;20043;-77
2022/07/23 05:23:16;;;;;;;7.47;5.18;;;;;;;21.81;100.00;96255.50;5046919;28;20661;-77
2022/07/23 05:25:42;;;;;;;8.80;5.20;;;;;;;21.93;100.00;96254.69;5044781;28;20028;-77
2022/07/23 05:28:08;;;;;;;6.20;4.55;;;;;;;22.00;100.00;96260.75;5043614;28;20073;-77
2022/07/23 05:30:34;;;;;;;8.88;4.95;;;;;;;22.09;99.76;96254.03;5047254;28;20045;-77
2022/07/23 05:33:03;;;;;;;6.57;4.60;;;;;;;22.18;99.20;96257.22;5050373;28;20501;-77
2022/07/23 05:35:29;;;;;;;7.88;4.85;;;;;;;22.47;97.65;96260.84;5070070;28;20058;-77
2022/07/23 05:38:13;;;;;;;6.57;4.82;;;;;;;22.56;95.62;96262.09;5072550;28;20075;-77
2022/07/23 05:40:39;;;;;;;7.00;5.10;;;;;;;22.66;95.52;96261.50;5034138;28;20067;-77
2022/07/23 05:43:05;;;;;;;6.75;4.78;;;;;;;23.00;93.73;96265.22;5051506;28;20029;-77
2022/07/23 05:45:31;;;;;;;6.18;4.72;;;;;;;23.11;92.34;96266.25;5043675;28;20036;-78
2022/07/23 05:47:57;;;;;;;6.85;4.78;;;;;;;23.25;90.82;96273.78;5046424;28;20029;-79
2022/07/23 05:50:35;;;;;;;6.10;4.80;;;;;;;23.09;91.58;96277.22;5050743;28;20034;-77
2022/07/23 05:53:09;;;;;;;6.00;4.57;;;;;;;23.14;92.01;96269.28;5052437;28;20435;-77
2022/07/23 05:55:53;;;;;;;7.30;4.95;;;;;;;23.09;93.57;96274.53;5053843;28;20032;-78
2022/07/23 05:58:19;;;;;;;6.97;4.70;;;;;;;23.11;95.68;96271.63;5039943;28;20025;-77
2022/07/23 06:00:46;;;;;;;6.60;4.47;;;;;;;23.11;94.20;96280.47;5049652;28;20035;-77
2022/07/23 06:03:12;;;;;;;7.55;5.00;;;;;;;23.17;92.35;96276.84;5056489;28;20143;-77
2022/07/23 06:05:38;;;;;;;6.72;4.93;;;;;;;23.22;92.91;96278.81;5051819;28;20404;-77
2022/07/23 06:08:05;;;;;;;6.28;4.70;;;;;;;23.33;92.94;96277.94;5032873;28;20044;-77
2022/07/23 06:10:30;;;;;;;6.75;4.57;;;;;;;23.53;89.15;96272.16;5070827;28;20033;-77
2022/07/23 06:12:57;;;;;;;6.65;5.30;;;;;;;23.83;89.15;96277.28;5055701;28;20028;-77
2022/07/23 06:15:23;;;;;;;6.82;5.22;;;;;;;24.13;87.21;96278.88;5048472;28;20036;-77
2022/07/23 06:17:50;;;;;;;6.20;4.72;;;;;;;23.65;92.67;96291.72;5035955;28;20115;-77
2022/07/23 06:20:15;;;;;;;7.07;4.93;;;;;;;23.54;92.04;96297.97;5035253;28;20111;-77
2022/07/23 06:22:41;;;;;;;7.07;5.38;;;;;;;23.75;93.42;96308.06;5043921;28;20037;-77
2022/07/23 06:25:07;;;;;;;7.93;5.10;;;;;;;23.80;94.65;96303.81;5055512;28;20170;-77
2022/07/23 06:27:33;;;;;;;6.20;4.82;;;;;;;23.39;95.21;96306.53;5059462;28;20040;-77
2022/07/23 06:29:59;;;;;;;7.68;4.82;;;;;;;23.86;92.33;96308.22;5053574;28;20032;-77
2022/07/23 06:32:24;;;;;;;7.82;5.18;;;;;;;23.79;91.88;96302.19;5048405;28;20032;-77
2022/07/23 06:34:50;;;;;;;7.95;5.03;;;;;;;23.97;92.24;96300.09;5030793;28;20135;-77
2022/07/23 06:37:16;;;;;;;8.05;5.43;;;;;;;23.92;90.83;96294.66;5053166;28;20045;-77
2022/07/23 06:39:42;;;;;;;7.15;4.65;;;;;;;24.29;89.66;96296.06;5077547;28;20030;-80
2022/07/23 06:42:08;;;;;;;7.25;5.20;;;;;;;24.88;86.84;96302.63;5056257;28;20028;-78
2022/07/23 06:44:43;;;;;;;9.40;5.28;;;;;;;24.16;91.76;96308.75;5038633;28;20054;-77
2022/07/23 06:47:09;;;;;;;7.88;5.25;;;;;;;24.10;91.75;96307.03;5032564;28;20553;-77
2022/07/23 06:49:35;;;;;;;7.40;5.28;;;;;;;24.07;93.67;96310.22;5024414;28;20033;-77
2022/07/23 06:52:01;;;;;;;6.80;5.40;;;;;;;23.97;94.67;96312.72;5052433;28;20028;-77
2022/07/23 06:54:26;;;;;;;6.47;4.97;;;;;;;24.39;92.41;96304.28;5074805;28;20027;-77
2022/07/23 06:56:52;;;;;;;7.38;5.28;;;;;;;24.30;93.10;96305.75;5048603;28;20020;-79
2022/07/23 06:59:18;;;;;;;7.88;5.18;;;;;;;24.21;96.22;96308.84;5058014;28;20043;-78
2022/07/23 07:01:43;;;;;;;8.40;5.18;;;;;;;24.39;94.20;96309.66;5040192;28;20130;-77
2022/07/23 07:04:09;;;;;;;6.50;4.68;;;;;;;24.54;92.42;96307.22;5051321;28;20013;-77
2022/07/23 07:06:35;;;;;;;7.97;5.72;;;;;;;24.21;90.90;96295.41;5075632;28;20040;-77
2022/07/23 07:09:01;;;;;;;8.68;5.80;;;;;;;24.51;90.93;96294.28;5077963;28;20052;-80
2022/07/23 07:11:26;;;;;;;7.35;5.82;;;;;;;25.64;82.00;96294.69;5060679;28;20087;-80
2022/07/23 07:13:52;;;;;;;7.53;5.28;;;;;;;25.85;78.42;96294.91;5035718;28;20036;-81
2022/07/23 07:16:18;;;;;;;7.72;5.38;;;;;;;26.52;75.62;96305.22;5030944;28;20032;-81
2022/07/23 07:18:44;;;;;;;8.05;5.38;;;;;;;26.17;77.85;96302.25;5050734;28;20455;-80
2022/07/23 07:21:09;;;;;;;8.52;5.10;;;;;;;25.74;79.93;96312.84;5038871;28;20032;-80
2022/07/23 07:23:35;;;;;;;7.05;4.82;;;;;;;25.66;81.45;96307.91;5060077;28;20930;-79
2022/07/23 07:26:01;;;;;;;7.78;5.13;;;;;;;26.03;81.31;96308.03;5043395;28;20036;-80
2022/07/23 07:28:26;;;;;;;6.97;5.03;;;;;;;25.96;80.52;96309.31;5057999;28;20102;-81
2022/07/23 07:30:52;;;;;;;5.80;4.70;;;;;;;25.77;82.48;96311.53;5060651;28;20028;-80
2022/07/23 07:33:18;;;;;;;7.25;5.30;;;;;;;26.90;79.07;96305.22;5063010;28;20521;-80
2022/07/23 07:35:44;;;;;;;8.18;5.68;;;;;;;27.12;69.71;96311.25;5060118;28;20027;-79
2022/07/23 07:38:10;;;;;;;6.15;5.00;;;;;;;27.10;71.08;96312.63;5057456;28;20040;-80
2022/07/23 07:40:35;;;;;;;8.70;4.93;;;;;;;28.00;64.25;96317.81;5054233;28;20075;-80
2022/07/23 07:43:03;;;;;;;7.95;5.22;;;;;;;28.45;61.99;96313.56;5059904;28;20093;-80
2022/07/23 07:45:29;;;;;;;9.05;5.28;;;;;;;28.61;60.69;96315.19;5035936;28;20043;-80
2022/07/23 07:47:55;;;;;;;7.43;4.97;;;;;;;29.31;57.16;96321.56;5058505;28;20036;-81
2022/07/23 07:50:21;;;;;;;6.25;5.10;;;;;;;29.12;54.35;96324.03;5046765;28;20050;-80
2022/07/23 07:52:47;;;;;;;8.05;4.97;;;;;;;30.13;52.26;96334.69;5052791;28;20859;-80
2022/07/23 07:55:13;;;;;;;9.55;5.13;;;;;;;30.61;49.13;96336.81;5075178;28;20028;-79
2022/07/23 07:57:39;;;;;;;5.93;4.90;;;;;;;30.46;50.32;96346.69;5059747;28;20040;-79
2022/07/23 08:00:07;;;;;;;10.45;5.43;;;;;;;30.31;51.99;96349.50;5038164;28;20082;-79
2022/07/23 08:02:44;;;;;;;9.35;5.45;;;;;;;29.65;52.47;96366.97;5057769;28;20040;-81
2022/07/23 08:05:10;;;;;;;7.22;5.05;;;;;;;28.05;54.84;96372.72;5076213;28;20059;-79
2022/07/23 08:07:37;;;;;;;6.78;5.10;;;;;;;27.00;59.12;96373.56;5042745;28;20119;-80
2022/07/23 08:10:03;;;;;;;7.57;5.55;;;;;;;26.77;63.44;96377.44;5079102;28;20161;-79
2022/07/23 08:12:47;;;;;;;6.72;5.25;;;;;;;26.14;65.45;96383.59;5052082;28;20040;-80
2022/07/23 08:15:14;;;;;;;6.47;5.30;;;;;;;26.21;66.21;96374.25;5054313;28;20564;-80
2022/07/23 08:17:42;;;;;;;6.80;4.72;;;;;;;26.21;67.01;96363.44;5069294;28;20746;-79
2022/07/23 08:20:09;;;;;;;6.82;5.07;;;;;;;26.78;64.25;96364.75;5054954;28;20028;-79
2022/07/23 08:22:48;;;;;;;6.95;5.47;;;;;;;27.24;61.69;96367.78;5069188;28;20414;-80
2022/07/23 08:25:14;;;;;;;7.30;5.05;;;;;;;27.12;62.10;96372.53;5069070;28;20123;-80
2022/07/23 08:27:40;;;;;;;6.95;5.18;;;;;;;27.71;59.24;96375.03;5072096;28;20040;-79
2022/07/23 08:30:06;;;;;;;7.65;5.60;;;;;;;26.97;62.96;96375.97;5081091;28;20024;-80
2022/07/23 08:32:32;;;;;;;6.50;5.22;;;;;;;27.03;62.10;96381.13;5069691;28;20056;-80
2022/07/23 08:34:58;;;;;;;8.10;5.32;;;;;;;26.90;64.80;96381.59;5073305;28;20712;-80
2022/07/23 08:37:23;;;;;;;8.00;5.43;;;;;;;26.69;67.55;96369.00;5066809;28;20487;-79
2022/07/23 08:39:49;;;;;;;7.30;5.10;;;;;;;25.74;70.54;96382.06;5057810;28;20411;-79
2022/07/23 08:42:15;;;;;;;6.18;5.10;;;;;;;25.93;69.93;96378.00;5059969;28;20032;-79
2022/07/23 08:44:45;;;;;;;6.65;5.03;;;;;;;25.81;72.19;96385.41;5040466;28;20020;-78
2022/07/23 08:47:15;;;;;;;8.55;5.55;;;;;;;25.85;73.24;96389.22;5042463;28;20036;-79
2022/07/23 08:49:41;;;;;;;7.25;5.30;;;;;;;26.37;68.68;96386.00;5071159;28;20085;-79
2022/07/23 08:52:07;;;;;;;8.77;5.93;;;;;;;26.50;68.25;96391.00;5062236;28;20025;-80
2022/07/23 08:54:34;;;;;;;10.95;5.75;;;;;;;27.11;62.80;96395.22;5041104;28;20031;-79
2022/07/23 08:57:00;;;;;;;7.47;5.63;;;;;;;27.11;65.09;96397.91;5062895;28;20029;-80
2022/07/23 08:59:26;;;;;;;7.40;6.10;;;;;;;26.53;64.99;96397.75;5079120;28;20094;-79
2022/07/23 09:01:52;;;;;;;8.85;5.90;;;;;;;26.60;65.96;96392.16;5056425;28;20064;-80
2022/07/23 09:04:18;;;;;;;9.50;5.07;;;;;;;26.09;66.65;96395.97;5060557;28;20055;-79
2022/07/23 09:06:44;;;;;;;7.80;5.55;;;;;;;27.54;58.86;96386.03;5046811;28;20855;-79
2022/07/23 09:09:20;;;;;;;8.15;5.13;;;;;;;27.21;56.96;96379.91;5072719;28;20024;-79
2022/07/23 09:11:47;;;;;;;6.22;4.82;;;;;;;28.54;53.08;96380.41;5056552;28;20112;-79
2022/07/23 09:14:12;;;;;;;8.32;4.65;;;;;;;28.32;54.00;96377.09;5041877;28;20028;-80
2022/07/23 09:16:38;;;;;;;8.93;5.32;;;;;;;28.42;51.86;96364.41;5071316;28;20032;-80
2022/07/23 09:19:07;;;;;;;6.75;5.05;;;;;;;28.04;53.68;96373.00;5054056;28;20035;-80
2022/07/23 09:21:39;;;;;;;6.30;5.10;;;;;;;28.19;53.19;96386.53;5071816;28;20039;-80
2022/07/23 09:24:10;;;;;;;6.70;4.90;;;;;;;27.94;54.31;96390.00;5054967;28;20036;-80
2022/07/23 09:26:43;;;;;;;5.88;4.38;;;;;;;27.99;51.99;96391.91;5085127;28;20044;-80
2022/07/23 09:29:13;;;;;;;9.13;4.78;;;;;;;28.14;52.09;96391.94;5061475;28;20020;-79
2022/07/23 09:31:52;;;;;;;6.00;4.35;;;;;;;27.74;52.09;96393.41;5037330;28;20067;-80
2022/07/23 09:34:20;;;;;;;6.72;4.22;;;;;;;27.44;52.01;96386.78;5064245;28;20131;-79
2022/07/23 09:36:46;;;;;;;6.20;4.00;;;;;;;27.07;50.99;96386.84;5054455;28;20470;-79
2022/07/23 09:39:13;;;;;;;7.28;4.03;;;;;;;27.99;46.97;96376.47;5043486;28;20029;-80
2022/07/23 09:41:43;;;;;;;6.60;3.85;;;;;;;28.08;46.62;96374.09;5074606;28;20040;-79
2022/07/23 09:44:11;;;;;;;5.57;4.15;;;;;;;27.95;47.23;96380.81;5048555;28;20401;-79
2022/07/23 09:46:39;;;;;;;6.43;4.15;;;;;;;28.17;45.13;96383.31;5068881;28;20098;-79
2022/07/23 09:49:23;;;;;;;6.53;3.85;;;;;;;27.97;48.06;96384.06;5054251;28;20397;-79
2022/07/23 09:51:56;;;;;;;6.13;4.18;;;;;;;28.35;47.97;96376.56;5055580;28;20032;-80
2022/07/23 09:54:30;;;;;;;6.18;4.72;;;;;;;28.23;47.97;96382.19;5074037;28;20046;-79
2022/07/23 09:56:57;;;;;;;15.82;13.50;;;;;;;29.04;46.59;96372.50;5063101;28;20052;-79
2022/07/23 09:59:28;;;;;;;8.20;6.95;;;;;;;29.41;43.93;96368.63;5063051;28;20043;-79
2022/07/23 10:01:56;;;;;;;6.47;4.67;;;;;;;29.54;43.87;96363.47;5044536;28;20049;-80
2022/07/23 10:04:23;;;;;;;5.53;4.10;;;;;;;30.54;43.30;96359.66;5073769;28;20040;-79
2022/07/23 10:07:10;;;;;;;8.73;4.47;;;;;;;31.27;40.58;96357.91;5024496;28;20553;-79
2022/07/23 10:09:55;;;;;;;6.63;4.53;;;;;;;32.02;39.63;96359.22;5054583;28;20568;-79
2022/07/23 10:15:17;;;;;;;6.18;4.47;;;;;;;31.53;39.50;96357.66;5053088;28;20024;-80
2022/07/23 10:17:42;;;;;;;7.25;4.43;;;;;;;32.08;40.32;96364.28;5056153;28;20027;-80
2022/07/23 10:20:09;;;;;;;7.07;4.70;;;;;;;31.79;39.28;96361.69;5052150;28;20025;-79
2022/07/23 10:22:40;;;;;;;7.40;5.25;;;;;;;32.49;39.50;96358.25;5042814;28;20056;-80
2022/07/23 10:25:08;;;;;;;5.88;4.72;;;;;;;31.67;39.80;96358.56;5072514;28;20089;-79
2022/07/23 10:27:37;;;;;;;6.20;5.03;;;;;;;32.53;38.66;96355.75;5045141;28;20390;-79
2022/07/23 10:30:11;;;;;;;8.13;5.80;;;;;;;32.09;41.14;96357.78;5042452;28;20473;-79
2022/07/23 10:33:14;;;;;;;7.00;4.95;;;;;;;33.05;38.83;96359.25;5062504;28;20087;-79
2022/07/23 10:36:11;;;;;;;9.13;5.32;;;;;;;33.25;37.96;96355.34;5063138;28;20037;-77
2022/07/23 10:39:03;;;;;;;6.30;4.68;;;;;;;32.70;39.96;96361.47;5060472;28;20078;-78
2022/07/23 10:41:32;;;;;;;;;;;;;;;32.77;37.31;96358.38;5048103;28;20111;-78
2022/07/23 10:44:20;;;;;;;6.53;5.53;;;;;;;33.16;35.50;96354.44;5057072;28;19988;-79
2022/07/23 10:49:48;;;;;;;7.25;5.05;;;;;;;32.70;36.90;96357.94;5074895;28;20396;-79
2022/07/23 10:52:14;;;;;;;8.45;4.63;;;;;;;31.60;38.79;96355.41;5059629;28;20032;-78
2022/07/23 10:55:15;;;;;;;7.05;4.82;;;;;;;31.21;39.02;96351.72;5061153;28;20062;-79
2022/07/23 10:57:49;;;;;;;5.93;4.70;;;;;;;31.50;38.85;96361.75;5034245;28;20032;-78
2022/07/23 11:00:19;;;;;;;7.75;4.22;;;;;;;31.14;39.58;96351.25;5048047;28;20059;-78
2022/07/23 11:02:47;;;;;;;6.60;4.55;;;;;;;30.43;39.87;96354.59;5056498;28;20038;-79
2022/07/23 11:05:21;;;;;;;4.68;4.03;;;;;;;30.83;41.12;96355.38;5056490;28;20024;-78
2022/07/23 11:08:10;;;;;;;6.18;4.85;;;;;;;30.18;41.96;96348.28;5053370;28;20118;-78
2022/07/23 11:10:49;;;;;;;5.93;4.80;;;;;;;30.44;42.14;96345.34;5069794;28;20036;-78
2022/07/23 11:13:24;;;;;;;7.07;5.10;;;;;;;29.94;43.05;96345.38;5053278;28;20040;-78
2022/07/23 11:16:04;;;;;;;6.57;5.13;;;;;;;30.54;42.45;96353.41;5063392;28;20134;-78
2022/07/23 11:18:42;;;;;;;6.22;5.00;;;;;;;30.00;44.85;96338.84;5074300;28;20040;-79
2022/07/23 11:21:37;;;;;;;7.75;4.93;;;;;;;30.29;44.33;96340.88;5058006;28;20044;-77
2022/07/23 11:24:08;;;;;;;6.72;4.90;;;;;;;29.79;44.84;96337.34;5061232;28;20051;-78
2022/07/23 11:26:37;;;;;;;7.33;5.13;;;;;;;29.82;44.32;96329.47;5079114;28;20035;-78
2022/07/23 11:29:27;;;;;;;6.68;5.35;;;;;;;29.96;45.18;96339.69;5048240;28;20032;-79
2022/07/23 11:32:01;;;;;;;6.72;5.35;;;;;;;30.31;44.24;96338.66;5054059;28;20039;-79
2022/07/23 11:34:33;;;;;;;7.28;5.60;;;;;;;30.64;42.59;96326.19;5078978;28;20064;-79
2022/07/23 11:37:01;;;;;;;6.43;4.57;;;;;;;32.02;41.38;96338.25;5076105;28;20397;-78
2022/07/23 11:39:28;;;;;;;6.90;5.00;;;;;;;32.14;40.10;96330.47;5042339;28;20032;-78
2022/07/23 11:41:56;;;;;;;7.00;5.20;;;;;;;32.07;39.22;96338.19;5077435;28;20113;-79